sensor_id;sensor_type;location;lat;lon;timestamp;P1;durP1;ratioP1;P2;durP2;ratioP2
8293;SDS011;4185;41.506;24.938;2023-06-22T00:01:15;6.33;;;5.73;;
8293;SDS011;4185;41.506;24.938;2023-06-22T00:03:42;6.33;;;5.73;;
8293;SDS011;4185;41.506;24.938;2023-06-22T00:06:09;8.17;;;6.10;;
8293;SDS011;4185;41.506;24.938;2023-06-22T00:08:35;7.10;;;5.87;;
8293;SDS011;4185;41.506;24.938;2023-06-22T00:11:02;6.77;;;6.07;;
8293;SDS011;4185;41.506;24.938;2023-06-22T00:13:30;6.77;;;5.97;;
8293;SDS011;4185;41.506;24.938;2023-06-22T00:15:57;6.53;;;5.77;;
8293;SDS011;4185;41.506;24.938;2023-06-22T00:18:24;6.40;;;5.77;;
8293;SDS011;4185;41.506;24.938;2023-06-22T00:20:53;7.50;;;6.00;;
8293;SDS011;4185;41.506;24.938;2023-06-22T00:23:22;8.20;;;5.97;;
8293;SDS011;4185;41.506;24.938;2023-06-22T00:25:50;6.97;;;5.90;;
8293;SDS011;4185;41.506;24.938;2023-06-22T00:28:17;7.00;;;6.30;;
8293;SDS011;4185;41.506;24.938;2023-06-22T00:30:45;7.07;;;6.33;;
8293;SDS011;4185;41.506;24.938;2023-06-22T00:33:12;6.70;;;5.70;;
8293;SDS011;4185;41.506;24.938;2023-06-22T00:35:41;7.93;;;5.73;;
8293;SDS011;4185;41.506;24.938;2023-06-22T00:38:07;6.97;;;6.23;;
8293;SDS011;4185;41.506;24.938;2023-06-22T00:40:34;7.83;;;5.90;;
8293;SDS011;4185;41.506;24.938;2023-06-22T00:43:02;7.40;;;5.50;;
8293;SDS011;4185;41.506;24.938;2023-06-22T00:45:29;6.93;;;5.73;;
8293;SDS011;4185;41.506;24.938;2023-06-22T00:47:57;8.20;;;5.70;;
8293;SDS011;4185;41.506;24.938;2023-06-22T00:50:26;6.80;;;6.10;;
8293;SDS011;4185;41.506;24.938;2023-06-22T00:52:59;7.37;;;6.10;;
8293;SDS011;4185;41.506;24.938;2023-06-22T00:55:29;7.43;;;6.40;;
8293;SDS011;4185;41.506;24.938;2023-06-22T00:57:56;6.13;;;5.53;;
8293;SDS011;4185;41.506;24.938;2023-06-22T01:00:23;6.57;;;5.83;;
8293;SDS011;4185;41.506;24.938;2023-06-22T01:02:50;7.23;;;5.93;;
8293;SDS011;4185;41.506;24.938;2023-06-22T01:05:20;7.67;;;5.90;;
8293;SDS011;4185;41.506;24.938;2023-06-22T01:07:51;6.83;;;6.00;;
8293;SDS011;4185;41.506;24.938;2023-06-22T01:10:28;7.77;;;5.93;;
8293;SDS011;4185;41.506;24.938;2023-06-22T01:13:04;7.27;;;6.13;;
8293;SDS011;4185;41.506;24.938;2023-06-22T01:15:37;6.30;;;5.70;;
8293;SDS011;4185;41.506;24.938;2023-06-22T01:18:11;7.33;;;6.13;;
8293;SDS011;4185;41.506;24.938;2023-06-22T01:20:41;7.40;;;5.80;;
8293;SDS011;4185;41.506;24.938;2023-06-22T01:23:11;6.80;;;5.87;;
8293;SDS011;4185;41.506;24.938;2023-06-22T01:25:54;8.13;;;5.90;;
8293;SDS011;4185;41.506;24.938;2023-06-22T01:28:42;8.23;;;5.63;;
8293;SDS011;4185;41.506;24.938;2023-06-22T01:31:11;8.17;;;5.80;;
8293;SDS011;4185;41.506;24.938;2023-06-22T01:33:41;8.23;;;5.90;;
8293;SDS011;4185;41.506;24.938;2023-06-22T01:36:10;7.03;;;5.50;;
8293;SDS011;4185;41.506;24.938;2023-06-22T01:38:38;7.53;;;6.13;;
8293;SDS011;4185;41.506;24.938;2023-06-22T01:41:05;7.20;;;6.17;;
8293;SDS011;4185;41.506;24.938;2023-06-22T01:43:32;6.57;;;5.87;;
8293;SDS011;4185;41.506;24.938;2023-06-22T01:46:01;6.80;;;5.67;;
8293;SDS011;4185;41.506;24.938;2023-06-22T01:48:28;8.17;;;6.27;;
8293;SDS011;4185;41.506;24.938;2023-06-22T01:50:56;7.20;;;5.63;;
8293;SDS011;4185;41.506;24.938;2023-06-22T01:53:23;6.70;;;6.00;;
8293;SDS011;4185;41.506;24.938;2023-06-22T01:55:50;6.93;;;6.17;;
8293;SDS011;4185;41.506;24.938;2023-06-22T01:58:17;8.20;;;6.57;;
8293;SDS011;4185;41.506;24.938;2023-06-22T02:00:48;7.70;;;5.77;;
8293;SDS011;4185;41.506;24.938;2023-06-22T02:03:28;7.20;;;6.33;;
8293;SDS011;4185;41.506;24.938;2023-06-22T02:06:04;7.00;;;6.20;;
8293;SDS011;4185;41.506;24.938;2023-06-22T02:08:35;6.57;;;5.90;;
8293;SDS011;4185;41.506;24.938;2023-06-22T02:11:06;7.03;;;6.03;;
8293;SDS011;4185;41.506;24.938;2023-06-22T02:13:34;8.40;;;6.07;;
8293;SDS011;4185;41.506;24.938;2023-06-22T02:16:03;7.37;;;6.10;;
8293;SDS011;4185;41.506;24.938;2023-06-22T02:18:31;12.30;;;6.37;;
8293;SDS011;4185;41.506;24.938;2023-06-22T02:21:00;7.53;;;5.90;;
8293;SDS011;4185;41.506;24.938;2023-06-22T02:23:27;8.30;;;6.10;;
8293;SDS011;4185;41.506;24.938;2023-06-22T02:25:54;10.07;;;6.60;;
8293;SDS011;4185;41.506;24.938;2023-06-22T02:28:20;6.73;;;5.83;;
8293;SDS011;4185;41.506;24.938;2023-06-22T02:30:47;6.20;;;5.53;;
8293;SDS011;4185;41.506;24.938;2023-06-22T02:33:14;7.20;;;5.90;;
8293;SDS011;4185;41.506;24.938;2023-06-22T02:35:42;5.80;;;5.23;;
8293;SDS011;4185;41.506;24.938;2023-06-22T02:38:10;6.47;;;5.53;;
8293;SDS011;4185;41.506;24.938;2023-06-22T02:40:37;6.63;;;5.93;;
8293;SDS011;4185;41.506;24.938;2023-06-22T02:43:04;7.73;;;5.90;;
8293;SDS011;4185;41.506;24.938;2023-06-22T02:45:31;8.17;;;6.63;;
8293;SDS011;4185;41.506;24.938;2023-06-22T02:47:57;6.70;;;5.60;;
8293;SDS011;4185;41.506;24.938;2023-06-22T02:50:24;7.37;;;6.00;;
8293;SDS011;4185;41.506;24.938;2023-06-22T02:52:52;7.63;;;5.90;;
8293;SDS011;4185;41.506;24.938;2023-06-22T02:55:19;7.23;;;5.77;;
8293;SDS011;4185;41.506;24.938;2023-06-22T02:57:46;7.37;;;5.77;;
8293;SDS011;4185;41.506;24.938;2023-06-22T03:00:13;9.30;;;6.00;;
8293;SDS011;4185;41.506;24.938;2023-06-22T03:02:43;6.63;;;5.90;;
8293;SDS011;4185;41.506;24.938;2023-06-22T03:05:10;6.00;;;4.83;;
8293;SDS011;4185;41.506;24.938;2023-06-22T03:07:39;7.73;;;6.07;;
8293;SDS011;4185;41.506;24.938;2023-06-22T03:10:09;6.90;;;5.80;;
8293;SDS011;4185;41.506;24.938;2023-06-22T03:12:36;7.87;;;5.90;;
8293;SDS011;4185;41.506;24.938;2023-06-22T03:15:04;6.57;;;5.90;;
8293;SDS011;4185;41.506;24.938;2023-06-22T03:17:32;6.33;;;5.70;;
8293;SDS011;4185;41.506;24.938;2023-06-22T03:19:59;8.17;;;6.20;;
8293;SDS011;4185;41.506;24.938;2023-06-22T03:22:26;7.50;;;6.10;;
8293;SDS011;4185;41.506;24.938;2023-06-22T03:24:53;8.23;;;6.93;;
8293;SDS011;4185;41.506;24.938;2023-06-22T03:27:21;8.13;;;6.10;;
8293;SDS011;4185;41.506;24.938;2023-06-22T03:29:48;7.00;;;6.07;;
8293;SDS011;4185;41.506;24.938;2023-06-22T03:32:14;7.57;;;6.30;;
8293;SDS011;4185;41.506;24.938;2023-06-22T03:34:41;7.70;;;6.17;;
8293;SDS011;4185;41.506;24.938;2023-06-22T03:37:12;7.73;;;6.20;;
8293;SDS011;4185;41.506;24.938;2023-06-22T03:39:39;8.67;;;6.20;;
8293;SDS011;4185;41.506;24.938;2023-06-22T03:42:06;10.30;;;6.40;;
8293;SDS011;4185;41.506;24.938;2023-06-22T03:44:35;9.27;;;6.40;;
8293;SDS011;4185;41.506;24.938;2023-06-22T03:47:02;7.53;;;6.13;;
8293;SDS011;4185;41.506;24.938;2023-06-22T03:49:31;7.33;;;6.23;;
8293;SDS011;4185;41.506;24.938;2023-06-22T03:51:59;7.17;;;6.33;;
8293;SDS011;4185;41.506;24.938;2023-06-22T03:54:26;7.20;;;5.97;;
8293;SDS011;4185;41.506;24.938;2023-06-22T03:56:53;7.80;;;6.50;;
8293;SDS011;4185;41.506;24.938;2023-06-22T03:59:19;7.30;;;6.20;;
8293;SDS011;4185;41.506;24.938;2023-06-22T04:01:47;8.27;;;5.90;;
8293;SDS011;4185;41.506;24.938;2023-06-22T04:04:15;7.63;;;6.20;;
8293;SDS011;4185;41.506;24.938;2023-06-22T04:06:42;7.23;;;6.20;;
8293;SDS011;4185;41.506;24.938;2023-06-22T04:09:09;9.00;;;5.90;;
8293;SDS011;4185;41.506;24.938;2023-06-22T04:11:36;7.13;;;6.03;;
8293;SDS011;4185;41.506;24.938;2023-06-22T04:14:03;8.00;;;6.13;;
8293;SDS011;4185;41.506;24.938;2023-06-22T04:16:29;8.13;;;6.53;;
8293;SDS011;4185;41.506;24.938;2023-06-22T04:18:57;6.70;;;6.00;;
8293;SDS011;4185;41.506;24.938;2023-06-22T04:21:24;8.83;;;7.03;;
8293;SDS011;4185;41.506;24.938;2023-06-22T04:23:51;7.60;;;6.77;;
8293;SDS011;4185;41.506;24.938;2023-06-22T04:26:18;8.83;;;6.73;;
8293;SDS011;4185;41.506;24.938;2023-06-22T04:28:46;9.77;;;6.90;;
8293;SDS011;4185;41.506;24.938;2023-06-22T04:31:16;8.50;;;6.20;;
8293;SDS011;4185;41.506;24.938;2023-06-22T04:33:44;8.13;;;6.70;;
8293;SDS011;4185;41.506;24.938;2023-06-22T04:36:12;10.87;;;7.13;;
8293;SDS011;4185;41.506;24.938;2023-06-22T04:38:40;8.43;;;6.43;;
8293;SDS011;4185;41.506;24.938;2023-06-22T04:41:07;9.43;;;6.73;;
8293;SDS011;4185;41.506;24.938;2023-06-22T04:43:39;11.60;;;7.53;;
8293;SDS011;4185;41.506;24.938;2023-06-22T04:46:06;8.77;;;7.33;;
8293;SDS011;4185;41.506;24.938;2023-06-22T04:48:32;13.03;;;9.03;;
8293;SDS011;4185;41.506;24.938;2023-06-22T04:50:59;13.53;;;8.80;;
8293;SDS011;4185;41.506;24.938;2023-06-22T04:53:30;11.23;;;7.47;;
8293;SDS011;4185;41.506;24.938;2023-06-22T04:55:57;9.10;;;7.37;;
8293;SDS011;4185;41.506;24.938;2023-06-22T04:58:23;9.13;;;7.60;;
8293;SDS011;4185;41.506;24.938;2023-06-22T05:00:52;8.07;;;6.73;;
8293;SDS011;4185;41.506;24.938;2023-06-22T05:03:22;9.33;;;7.20;;
8293;SDS011;4185;41.506;24.938;2023-06-22T05:05:52;8.77;;;7.50;;
8293;SDS011;4185;41.506;24.938;2023-06-22T05:08:19;10.60;;;8.13;;
8293;SDS011;4185;41.506;24.938;2023-06-22T05:10:47;10.57;;;7.93;;
8293;SDS011;4185;41.506;24.938;2023-06-22T05:13:14;9.43;;;8.10;;
8293;SDS011;4185;41.506;24.938;2023-06-22T05:15:40;8.90;;;7.40;;
8293;SDS011;4185;41.506;24.938;2023-06-22T05:18:07;9.37;;;7.60;;
8293;SDS011;4185;41.506;24.938;2023-06-22T05:20:34;8.90;;;7.47;;
8293;SDS011;4185;41.506;24.938;2023-06-22T05:23:01;9.60;;;8.00;;
8293;SDS011;4185;41.506;24.938;2023-06-22T05:25:28;9.17;;;7.53;;
8293;SDS011;4185;41.506;24.938;2023-06-22T05:27:59;10.40;;;7.30;;
8293;SDS011;4185;41.506;24.938;2023-06-22T05:30:25;9.33;;;7.40;;
8293;SDS011;4185;41.506;24.938;2023-06-22T05:32:53;9.80;;;7.70;;
8293;SDS011;4185;41.506;24.938;2023-06-22T05:35:20;10.67;;;7.40;;
8293;SDS011;4185;41.506;24.938;2023-06-22T05:37:47;9.83;;;7.80;;
8293;SDS011;4185;41.506;24.938;2023-06-22T05:40:14;11.60;;;8.20;;
8293;SDS011;4185;41.506;24.938;2023-06-22T05:42:41;8.10;;;7.27;;
8293;SDS011;4185;41.506;24.938;2023-06-22T05:45:09;10.33;;;8.83;;
8293;SDS011;4185;41.506;24.938;2023-06-22T05:47:36;8.33;;;7.17;;
8293;SDS011;4185;41.506;24.938;2023-06-22T05:50:03;10.50;;;7.00;;
8293;SDS011;4185;41.506;24.938;2023-06-22T05:52:33;8.37;;;7.47;;
8293;SDS011;4185;41.506;24.938;2023-06-22T05:55:02;9.13;;;7.80;;
8293;SDS011;4185;41.506;24.938;2023-06-22T05:57:29;9.83;;;7.70;;
8293;SDS011;4185;41.506;24.938;2023-06-22T05:59:56;9.90;;;8.37;;
8293;SDS011;4185;41.506;24.938;2023-06-22T06:02:24;9.10;;;8.10;;
8293;SDS011;4185;41.506;24.938;2023-06-22T06:04:51;9.13;;;7.67;;
8293;SDS011;4185;41.506;24.938;2023-06-22T06:07:17;9.00;;;7.77;;
8293;SDS011;4185;41.506;24.938;2023-06-22T06:09:44;9.43;;;8.47;;
8293;SDS011;4185;41.506;24.938;2023-06-22T06:12:11;10.60;;;8.47;;
8293;SDS011;4185;41.506;24.938;2023-06-22T06:14:38;10.13;;;8.17;;
8293;SDS011;4185;41.506;24.938;2023-06-22T06:17:05;8.73;;;7.47;;
8293;SDS011;4185;41.506;24.938;2023-06-22T06:19:34;8.60;;;7.70;;
8293;SDS011;4185;41.506;24.938;2023-06-22T06:22:00;8.73;;;7.73;;
8293;SDS011;4185;41.506;24.938;2023-06-22T06:24:28;8.30;;;7.23;;
8293;SDS011;4185;41.506;24.938;2023-06-22T06:26:54;7.87;;;6.70;;
8293;SDS011;4185;41.506;24.938;2023-06-22T06:29:22;8.27;;;6.90;;
8293;SDS011;4185;41.506;24.938;2023-06-22T06:31:49;8.67;;;7.30;;
8293;SDS011;4185;41.506;24.938;2023-06-22T06:34:15;9.20;;;7.00;;
8293;SDS011;4185;41.506;24.938;2023-06-22T06:36:43;9.60;;;6.70;;
8293;SDS011;4185;41.506;24.938;2023-06-22T06:39:10;8.60;;;7.40;;
8293;SDS011;4185;41.506;24.938;2023-06-22T06:41:37;9.00;;;7.17;;
8293;SDS011;4185;41.506;24.938;2023-06-22T06:44:04;8.53;;;7.63;;
8293;SDS011;4185;41.506;24.938;2023-06-22T06:46:30;8.83;;;7.10;;
8293;SDS011;4185;41.506;24.938;2023-06-22T06:48:57;8.37;;;7.57;;
8293;SDS011;4185;41.506;24.938;2023-06-22T06:51:24;8.63;;;7.73;;
8293;SDS011;4185;41.506;24.938;2023-06-22T06:53:52;7.93;;;6.80;;
8293;SDS011;4185;41.506;24.938;2023-06-22T06:56:19;8.17;;;7.33;;
8293;SDS011;4185;41.506;24.938;2023-06-22T06:58:45;11.07;;;8.60;;
8293;SDS011;4185;41.506;24.938;2023-06-22T07:01:13;8.60;;;7.63;;
8293;SDS011;4185;41.506;24.938;2023-06-22T07:03:40;8.40;;;7.23;;
8293;SDS011;4185;41.506;24.938;2023-06-22T07:06:07;8.37;;;7.57;;
8293;SDS011;4185;41.506;24.938;2023-06-22T07:08:34;8.53;;;7.63;;
8293;SDS011;4185;41.506;24.938;2023-06-22T07:11:03;7.70;;;6.90;;
8293;SDS011;4185;41.506;24.938;2023-06-22T07:13:29;7.40;;;6.70;;
8293;SDS011;4185;41.506;24.938;2023-06-22T07:15:56;9.97;;;7.57;;
8293;SDS011;4185;41.506;24.938;2023-06-22T07:18:24;8.80;;;7.97;;
8293;SDS011;4185;41.506;24.938;2023-06-22T07:20:51;9.10;;;7.97;;
8293;SDS011;4185;41.506;24.938;2023-06-22T07:23:18;9.10;;;8.03;;
8293;SDS011;4185;41.506;24.938;2023-06-22T07:25:45;9.07;;;8.17;;
8293;SDS011;4185;41.506;24.938;2023-06-22T07:28:13;9.20;;;7.87;;
8293;SDS011;4185;41.506;24.938;2023-06-22T07:30:40;8.50;;;7.70;;
8293;SDS011;4185;41.506;24.938;2023-06-22T07:33:06;11.00;;;8.10;;
8293;SDS011;4185;41.506;24.938;2023-06-22T07:35:33;9.53;;;8.30;;
8293;SDS011;4185;41.506;24.938;2023-06-22T07:38:00;10.23;;;8.47;;
8293;SDS011;4185;41.506;24.938;2023-06-22T07:40:27;8.87;;;7.37;;
8293;SDS011;4185;41.506;24.938;2023-06-22T07:42:54;8.27;;;7.47;;
8293;SDS011;4185;41.506;24.938;2023-06-22T07:45:22;9.77;;;7.37;;
8293;SDS011;4185;41.506;24.938;2023-06-22T07:47:49;7.97;;;7.17;;
8293;SDS011;4185;41.506;24.938;2023-06-22T07:50:16;8.00;;;7.20;;
8293;SDS011;4185;41.506;24.938;2023-06-22T07:52:43;8.03;;;7.10;;
8293;SDS011;4185;41.506;24.938;2023-06-22T07:55:10;9.93;;;7.40;;
8293;SDS011;4185;41.506;24.938;2023-06-22T07:57:36;7.67;;;6.83;;
8293;SDS011;4185;41.506;24.938;2023-06-22T08:00:04;8.27;;;7.37;;
8293;SDS011;4185;41.506;24.938;2023-06-22T08:02:39;7.93;;;6.50;;
8293;SDS011;4185;41.506;24.938;2023-06-22T08:05:06;7.97;;;6.87;;
8293;SDS011;4185;41.506;24.938;2023-06-22T08:07:33;8.83;;;7.17;;
8293;SDS011;4185;41.506;24.938;2023-06-22T08:10:00;7.50;;;6.80;;
8293;SDS011;4185;41.506;24.938;2023-06-22T08:12:27;7.60;;;6.80;;
8293;SDS011;4185;41.506;24.938;2023-06-22T08:14:54;7.63;;;6.60;;
8293;SDS011;4185;41.506;24.938;2023-06-22T08:17:22;6.97;;;6.27;;
8293;SDS011;4185;41.506;24.938;2023-06-22T08:19:50;7.57;;;6.87;;
8293;SDS011;4185;41.506;24.938;2023-06-22T08:22:17;7.57;;;6.87;;
8293;SDS011;4185;41.506;24.938;2023-06-22T08:24:44;7.30;;;6.60;;
8293;SDS011;4185;41.506;24.938;2023-06-22T08:27:11;6.95;;;6.25;;
8293;SDS011;4185;41.506;24.938;2023-06-22T08:29:38;8.30;;;7.43;;
8293;SDS011;4185;41.506;24.938;2023-06-22T08:32:07;7.07;;;6.37;;
8293;SDS011;4185;41.506;24.938;2023-06-22T08:34:35;7.20;;;6.50;;
8293;SDS011;4185;41.506;24.938;2023-06-22T08:37:08;7.68;;;6.90;;
8293;SDS011;4185;41.506;24.938;2023-06-22T08:39:35;8.03;;;6.57;;
8293;SDS011;4185;41.506;24.938;2023-06-22T08:42:02;9.65;;;6.30;;
8293;SDS011;4185;41.506;24.938;2023-06-22T08:44:29;8.03;;;7.23;;
8293;SDS011;4185;41.506;24.938;2023-06-22T08:46:56;7.63;;;6.88;;
8293;SDS011;4185;41.506;24.938;2023-06-22T08:49:23;7.60;;;6.72;;
8293;SDS011;4185;41.506;24.938;2023-06-22T08:51:50;7.72;;;7.03;;
8293;SDS011;4185;41.506;24.938;2023-06-22T08:54:20;7.97;;;7.18;;
8293;SDS011;4185;41.506;24.938;2023-06-22T08:56:47;7.00;;;6.40;;
8293;SDS011;4185;41.506;24.938;2023-06-22T08:59:14;8.40;;;6.97;;
8293;SDS011;4185;41.506;24.938;2023-06-22T09:01:40;9.63;;;7.35;;
8293;SDS011;4185;41.506;24.938;2023-06-22T09:04:13;10.65;;;6.55;;
8293;SDS011;4185;41.506;24.938;2023-06-22T09:06:40;7.95;;;7.25;;
8293;SDS011;4185;41.506;24.938;2023-06-22T09:09:10;8.10;;;7.05;;
8293;SDS011;4185;41.506;24.938;2023-06-22T09:11:38;7.93;;;7.18;;
8293;SDS011;4185;41.506;24.938;2023-06-22T09:14:05;8.05;;;7.25;;
8293;SDS011;4185;41.506;24.938;2023-06-22T09:16:32;8.90;;;6.70;;
8293;SDS011;4185;41.506;24.938;2023-06-22T09:18:59;7.97;;;7.18;;
8293;SDS011;4185;41.506;24.938;2023-06-22T09:21:26;7.88;;;6.97;;
8293;SDS011;4185;41.506;24.938;2023-06-22T09:23:52;7.82;;;6.97;;
8293;SDS011;4185;41.506;24.938;2023-06-22T09:26:19;7.88;;;6.85;;
8293;SDS011;4185;41.506;24.938;2023-06-22T09:28:49;8.05;;;7.22;;
8293;SDS011;4185;41.506;24.938;2023-06-22T09:31:16;12.88;;;7.22;;
8293;SDS011;4185;41.506;24.938;2023-06-22T09:33:46;7.43;;;6.72;;
8293;SDS011;4185;41.506;24.938;2023-06-22T09:36:13;8.00;;;7.20;;
8293;SDS011;4185;41.506;24.938;2023-06-22T09:38:41;7.50;;;6.78;;
8293;SDS011;4185;41.506;24.938;2023-06-22T09:41:08;8.18;;;7.38;;
8293;SDS011;4185;41.506;24.938;2023-06-22T09:43:36;7.47;;;6.78;;
8293;SDS011;4185;41.506;24.938;2023-06-22T09:46:04;8.68;;;6.80;;
8293;SDS011;4185;41.506;24.938;2023-06-22T09:48:32;7.18;;;6.47;;
8293;SDS011;4185;41.506;24.938;2023-06-22T09:50:59;8.50;;;7.70;;
8293;SDS011;4185;41.506;24.938;2023-06-22T09:53:25;8.77;;;7.03;;
8293;SDS011;4185;41.506;24.938;2023-06-22T09:55:52;8.43;;;7.43;;
8293;SDS011;4185;41.506;24.938;2023-06-22T09:58:19;9.38;;;7.43;;
8293;SDS011;4185;41.506;24.938;2023-06-22T10:00:46;8.27;;;7.47;;
8293;SDS011;4185;41.506;24.938;2023-06-22T10:03:14;7.90;;;7.10;;
8293;SDS011;4185;41.506;24.938;2023-06-22T10:05:40;8.82;;;7.25;;
8293;SDS011;4185;41.506;24.938;2023-06-22T10:08:07;8.60;;;7.72;;
8293;SDS011;4185;41.506;24.938;2023-06-22T10:10:35;7.43;;;6.72;;
8293;SDS011;4185;41.506;24.938;2023-06-22T10:13:03;12.18;;;7.20;;
8293;SDS011;4185;41.506;24.938;2023-06-22T10:15:35;9.32;;;6.93;;
8293;SDS011;4185;41.506;24.938;2023-06-22T10:18:02;8.43;;;6.57;;
8293;SDS011;4185;41.506;24.938;2023-06-22T10:20:30;8.25;;;7.28;;
8293;SDS011;4185;41.506;24.938;2023-06-22T10:22:57;7.63;;;6.82;;
8293;SDS011;4185;41.506;24.938;2023-06-22T10:25:24;8.27;;;7.22;;
8293;SDS011;4185;41.506;24.938;2023-06-22T10:27:51;8.02;;;7.18;;
8293;SDS011;4185;41.506;24.938;2023-06-22T10:30:18;9.18;;;6.78;;
8293;SDS011;4185;41.506;24.938;2023-06-22T10:32:44;7.63;;;6.93;;
8293;SDS011;4185;41.506;24.938;2023-06-22T10:35:11;7.38;;;6.72;;
8293;SDS011;4185;41.506;24.938;2023-06-22T10:37:42;8.40;;;7.05;;
8293;SDS011;4185;41.506;24.938;2023-06-22T10:40:10;7.35;;;6.65;;
8293;SDS011;4185;41.506;24.938;2023-06-22T10:42:37;7.78;;;6.93;;
8293;SDS011;4185;41.506;24.938;2023-06-22T10:45:05;7.22;;;6.50;;
8293;SDS011;4185;41.506;24.938;2023-06-22T10:47:33;7.35;;;6.65;;
8293;SDS011;4185;41.506;24.938;2023-06-22T10:49:59;8.88;;;6.90;;
8293;SDS011;4185;41.506;24.938;2023-06-22T10:52:27;7.70;;;6.90;;
8293;SDS011;4185;41.506;24.938;2023-06-22T10:54:56;7.57;;;6.88;;
8293;SDS011;4185;41.506;24.938;2023-06-22T10:57:22;7.38;;;6.68;;
8293;SDS011;4185;41.506;24.938;2023-06-22T10:59:49;8.32;;;6.97;;
8293;SDS011;4185;41.506;24.938;2023-06-22T11:02:16;10.10;;;7.28;;
8293;SDS011;4185;41.506;24.938;2023-06-22T11:04:43;8.15;;;7.35;;
8293;SDS011;4185;41.506;24.938;2023-06-22T11:07:09;8.95;;;6.82;;
8293;SDS011;4185;41.506;24.938;2023-06-22T11:09:36;7.50;;;6.80;;
8293;SDS011;4185;41.506;24.938;2023-06-22T11:12:06;6.97;;;6.28;;
8293;SDS011;4185;41.506;24.938;2023-06-22T11:14:33;7.22;;;6.53;;
8293;SDS011;4185;41.506;24.938;2023-06-22T11:17:00;7.30;;;6.60;;
8293;SDS011;4185;41.506;24.938;2023-06-22T11:19:26;8.48;;;6.50;;
8293;SDS011;4185;41.506;24.938;2023-06-22T11:21:53;7.30;;;6.60;;
8293;SDS011;4185;41.506;24.938;2023-06-22T11:24:20;7.88;;;7.05;;
8293;SDS011;4185;41.506;24.938;2023-06-22T11:26:47;7.93;;;7.10;;
8293;SDS011;4185;41.506;24.938;2023-06-22T11:29:15;8.25;;;6.75;;
8293;SDS011;4185;41.506;24.938;2023-06-22T11:31:42;7.63;;;6.93;;
8293;SDS011;4185;41.506;24.938;2023-06-22T11:34:08;7.47;;;6.65;;
8293;SDS011;4185;41.506;24.938;2023-06-22T11:36:36;8.32;;;7.43;;
8293;SDS011;4185;41.506;24.938;2023-06-22T11:39:02;7.30;;;6.60;;
8293;SDS011;4185;41.506;24.938;2023-06-22T11:41:30;7.22;;;6.53;;
8293;SDS011;4185;41.506;24.938;2023-06-22T11:43:56;7.28;;;6.57;;
8293;SDS011;4185;41.506;24.938;2023-06-22T11:46:25;7.78;;;6.70;;
8293;SDS011;4185;41.506;24.938;2023-06-22T11:48:51;7.45;;;6.75;;
8293;SDS011;4185;41.506;24.938;2023-06-22T11:51:18;7.30;;;6.60;;
8293;SDS011;4185;41.506;24.938;2023-06-22T11:53:45;11.07;;;6.95;;
8293;SDS011;4185;41.506;24.938;2023-06-22T11:56:13;6.90;;;6.22;;
8293;SDS011;4185;41.506;24.938;2023-06-22T11:58:40;6.95;;;6.25;;
8293;SDS011;4185;41.506;24.938;2023-06-22T12:01:06;8.05;;;6.78;;
8293;SDS011;4185;41.506;24.938;2023-06-22T12:03:35;6.93;;;6.25;;
8293;SDS011;4185;41.506;24.938;2023-06-22T12:06:01;7.68;;;6.97;;
8293;SDS011;4185;41.506;24.938;2023-06-22T12:08:28;7.18;;;6.50;;
8293;SDS011;4185;41.506;24.938;2023-06-22T12:10:55;7.35;;;6.65;;
8293;SDS011;4185;41.506;24.938;2023-06-22T12:13:21;8.40;;;7.60;;
8293;SDS011;4185;41.506;24.938;2023-06-22T12:15:48;10.70;;;7.07;;
8293;SDS011;4185;41.506;24.938;2023-06-22T12:18:17;7.35;;;6.28;;
8293;SDS011;4185;41.506;24.938;2023-06-22T12:20:47;7.15;;;6.45;;
8293;SDS011;4185;41.506;24.938;2023-06-22T12:23:14;8.05;;;6.80;;
8293;SDS011;4185;41.506;24.938;2023-06-22T12:25:41;7.40;;;6.53;;
8293;SDS011;4185;41.506;24.938;2023-06-22T12:28:08;8.88;;;6.63;;
8293;SDS011;4185;41.506;24.938;2023-06-22T12:30:34;8.18;;;6.93;;
8293;SDS011;4185;41.506;24.938;2023-06-22T12:33:01;7.10;;;6.43;;
8293;SDS011;4185;41.506;24.938;2023-06-22T12:35:28;7.47;;;6.68;;
8293;SDS011;4185;41.506;24.938;2023-06-22T12:37:56;7.07;;;6.38;;
8293;SDS011;4185;41.506;24.938;2023-06-22T12:40:23;7.30;;;6.60;;
8293;SDS011;4185;41.506;24.938;2023-06-22T12:42:50;8.43;;;7.07;;
8293;SDS011;4185;41.506;24.938;2023-06-22T12:45:17;7.20;;;6.60;;
8293;SDS011;4185;41.506;24.938;2023-06-22T12:47:46;7.10;;;6.03;;
8293;SDS011;4185;41.506;24.938;2023-06-22T12:50:15;6.43;;;5.82;;
8293;SDS011;4185;41.506;24.938;2023-06-22T12:52:41;7.28;;;6.65;;
8293;SDS011;4185;41.506;24.938;2023-06-22T12:55:10;7.82;;;5.50;;
8293;SDS011;4185;41.506;24.938;2023-06-22T12:57:36;6.70;;;6.10;;
8293;SDS011;4185;41.506;24.938;2023-06-22T13:00:03;6.18;;;5.57;;
8293;SDS011;4185;41.506;24.938;2023-06-22T13:02:33;7.65;;;6.15;;
8293;SDS011;4185;41.506;24.938;2023-06-22T13:04:59;6.80;;;6.10;;
8293;SDS011;4185;41.506;24.938;2023-06-22T13:07:26;7.43;;;6.32;;
8293;SDS011;4185;41.506;24.938;2023-06-22T13:09:53;8.10;;;6.68;;
8293;SDS011;4185;41.506;24.938;2023-06-22T13:12:21;7.85;;;6.10;;
8293;SDS011;4185;41.506;24.938;2023-06-22T13:14:48;6.45;;;5.85;;
8293;SDS011;4185;41.506;24.938;2023-06-22T13:17:15;7.78;;;6.50;;
8293;SDS011;4185;41.506;24.938;2023-06-22T13:19:42;6.88;;;6.18;;
8293;SDS011;4185;41.506;24.938;2023-06-22T13:22:25;7.35;;;6.65;;
8293;SDS011;4185;41.506;24.938;2023-06-22T13:24:53;7.20;;;6.53;;
8293;SDS011;4185;41.506;24.938;2023-06-22T13:27:21;6.90;;;6.13;;
8293;SDS011;4185;41.506;24.938;2023-06-22T13:29:48;7.75;;;6.93;;
8293;SDS011;4185;41.506;24.938;2023-06-22T13:32:15;7.18;;;6.47;;
8293;SDS011;4185;41.506;24.938;2023-06-22T13:34:41;7.28;;;6.63;;
8293;SDS011;4185;41.506;24.938;2023-06-22T13:37:08;7.60;;;6.50;;
8293;SDS011;4185;41.506;24.938;2023-06-22T13:39:35;7.50;;;6.78;;
8293;SDS011;4185;41.506;24.938;2023-06-22T13:42:02;7.78;;;7.07;;
8293;SDS011;4185;41.506;24.938;2023-06-22T13:44:30;7.93;;;7.13;;
8293;SDS011;4185;41.506;24.938;2023-06-22T13:46:57;8.52;;;7.00;;
8293;SDS011;4185;41.506;24.938;2023-06-22T13:49:24;8.60;;;7.80;;
8293;SDS011;4185;41.506;24.938;2023-06-22T13:51:51;7.70;;;6.93;;
8293;SDS011;4185;41.506;24.938;2023-06-22T13:54:17;8.57;;;7.45;;
8293;SDS011;4185;41.506;24.938;2023-06-22T13:56:44;8.35;;;7.47;;
8293;SDS011;4185;41.506;24.938;2023-06-22T13:59:11;8.15;;;7.45;;
8293;SDS011;4185;41.506;24.938;2023-06-22T14:01:39;7.63;;;6.72;;
8293;SDS011;4185;41.506;24.938;2023-06-22T14:04:06;8.02;;;7.22;;
8293;SDS011;4185;41.506;24.938;2023-06-22T14:06:33;8.23;;;7.40;;
8293;SDS011;4185;41.506;24.938;2023-06-22T14:09:00;8.35;;;7.40;;
8293;SDS011;4185;41.506;24.938;2023-06-22T14:11:27;10.30;;;7.40;;
8293;SDS011;4185;41.506;24.938;2023-06-22T14:13:53;8.00;;;7.20;;
8293;SDS011;4185;41.506;24.938;2023-06-22T14:16:20;8.18;;;7.38;;
8293;SDS011;4185;41.506;24.938;2023-06-22T14:18:48;10.07;;;7.57;;
8293;SDS011;4185;41.506;24.938;2023-06-22T14:21:15;11.98;;;8.13;;
8293;SDS011;4185;41.506;24.938;2023-06-22T14:23:41;8.60;;;7.70;;
8293;SDS011;4185;41.506;24.938;2023-06-22T14:26:12;8.43;;;7.72;;
8293;SDS011;4185;41.506;24.938;2023-06-22T14:28:39;8.00;;;7.20;;
8293;SDS011;4185;41.506;24.938;2023-06-22T14:31:05;7.88;;;7.07;;
8293;SDS011;4185;41.506;24.938;2023-06-22T14:33:32;8.05;;;7.20;;
8293;SDS011;4185;41.506;24.938;2023-06-22T14:36:00;8.13;;;7.43;;
8293;SDS011;4185;41.506;24.938;2023-06-22T14:38:27;7.97;;;7.18;;
8293;SDS011;4185;41.506;24.938;2023-06-22T14:40:54;9.32;;;8.32;;
8293;SDS011;4185;41.506;24.938;2023-06-22T14:43:20;8.80;;;7.90;;
8293;SDS011;4185;41.506;24.938;2023-06-22T14:45:47;8.25;;;7.45;;
8293;SDS011;4185;41.506;24.938;2023-06-22T14:48:14;8.50;;;7.60;;
8293;SDS011;4185;41.506;24.938;2023-06-22T14:50:41;9.02;;;8.23;;
8293;SDS011;4185;41.506;24.938;2023-06-22T14:53:09;8.63;;;7.78;;
8293;SDS011;4185;41.506;24.938;2023-06-22T14:55:36;9.18;;;8.27;;
8293;SDS011;4185;41.506;24.938;2023-06-22T14:58:02;9.27;;;8.38;;
8293;SDS011;4185;41.506;24.938;2023-06-22T15:00:29;8.80;;;7.90;;
8293;SDS011;4185;41.506;24.938;2023-06-22T15:02:56;8.25;;;7.45;;